首页
METAR-TAF:

METAR-TAF

机场 :

科钦国际机场

柯枝, 印度

纬度: 10-09-07N, 经度: 76-24-07E, 海拔: 9米

当前天气观测

该预报发布于36分钟前的03:30 UTC
风速2节,风向
温度 27°C
湿度 89%
气压 1008 hPa
能見度: 5000
散云层高于1200英尺
多云层高于8000英尺
轻雾,

METAR: VOCI 220330Z 08002KT 5000 BR SCT012 BKN080 27/25 Q1008 NOSIG

时间: 09:36 (04:06 UTC)

预报

该预报发布于2小时和6分钟前的02:00 UTC
预报有效从22日的 03点(UTC)到 22日的 12点(UTC)
风速10节,风向北转西北
能見度: 3000
少量云层高于800英尺
散云层高于1500英尺
多云层高于8000英尺
雨, 轻雾
短暂存在
从 22日的 06点(UTC)到 22日的 10点(UTC)
风速10节,风向西转西北
能見度: 1500
少量云层高于800英尺
散云层高于1200英尺
少量云层高于2500英尺, 积雨云.
阴天层高于8000英尺
雷暴, 雨, 轻雾,

TAF: VOCI 220200Z 2203/2212 33010KT 3000 RA BR FEW008 SCT015 BKN080 TEMPO 2206/2210 30010KT 1500 TSRA BR FEW008 SCT012 FEW025CB OVC080

超过4000个机场的气象观测和天气预报(METAR&TAF报告)。

可查询的气象台以黄色和红色小点在地图上表示。

将鼠标移到小点上方,可查看气象台名称。

然后点击查看天气观测和预报。

如需切换地图:点击带黑十字的绿色按钮放大地图;点击带横线的绿色按钮缩小地图;或者点击绿色箭头查看邻近地区的地图。


METAR-TAF: